Menno, South Dakota
Current Conditions -  °F | °C
As of 11:15 AM on Sunday 23 Nov 2014 (Local Time) from KYKN Reporting Station
Clear Clear  
Wind Chill: 35°   Ceiling: Unl
Heat Index: 43°   Visibility: 10mi
Dew Point: 36°   Wind: 16mph
Humidity: 76%   Direction: 300°WNW
Pressure: 29.59"   Gusts: NA
Location:  43.24°N, 97.58°W
Report Text: KYKN 231715Z AUTO 30014KT 10SM CLR 06/02 A2959 RMK AO1
Loading
Personal Weather Stations






























Interactive Weather Map New forecast layout! Learn more

10-Day Weather Forecast

Advertisements
Track Severe Weather on mobile